Time;durP1;ratioP1;P1;durP2;ratioP2;P2;SDS_P1;SDS_P2;PMS_P1;PMS_P2;Temp;Humidity;BMP_temperature;BMP_pressure;BME280_temperature;BME280_humidity;BME280_pressure;Samples;Min_cycle;Max_cycle;Signal;HPM_P1;HPM_P2
2023/04/11 00:00:31;;;;;;;;;;;8.00;99.90;;;;;;5054791;28;19913;-62
2023/04/11 00:02:58;;;;;;;;;;;8.10;99.90;;;;;;5049426;28;19920;-61
2023/04/11 00:05:27;;;;;;;;;;;8.00;99.90;;;;;;5057169;28;19917;-62
2023/04/11 00:07:53;;;;;;;;;;;8.00;99.90;;;;;;5055517;28;19956;-62
2023/04/11 00:10:18;;;;;;;;;;;8.00;99.90;;;;;;5041091;28;20317;-62
2023/04/11 00:12:44;;;;;;;;;;;8.00;99.90;;;;;;5060213;28;20237;-62
2023/04/11 00:15:10;;;;;;;;;;;8.00;99.90;;;;;;5045960;28;20015;-61
2023/04/11 00:17:36;;;;;;;;;;;8.00;99.90;;;;;;5039232;28;20359;-62
2023/04/11 00:20:09;;;;;;;;;;;8.00;99.90;;;;;;5057710;28;20373;-62
2023/04/11 00:22:35;;;;;;;;;;;8.00;99.90;;;;;;5045170;28;20392;-61
2023/04/11 00:25:01;;;;;;;;;;;7.90;99.90;;;;;;5048557;28;19920;-62
2023/04/11 00:27:26;;;;;;;;;;;7.90;99.90;;;;;;5056272;28;19921;-61
2023/04/11 00:29:53;;;;;;;;;;;7.80;99.90;;;;;;5049788;28;19919;-62
2023/04/11 00:32:19;;;;;;;;;;;7.90;99.90;;;;;;5048463;28;19920;-62
2023/04/11 00:34:45;;;;;;;;;;;7.90;99.90;;;;;;5046513;28;19917;-61
2023/04/11 00:37:11;;;;;;;;;;;7.90;99.90;;;;;;5054737;28;19978;-62
2023/04/11 00:39:37;;;;;;;;;;;7.90;99.90;;;;;;5047901;28;19952;-61
2023/04/11 00:42:04;;;;;;;;;;;7.90;99.90;;;;;;5050720;28;20315;-62
2023/04/11 00:44:29;;;;;;;;;;;7.80;99.90;;;;;;5053142;28;20003;-61
2023/04/11 00:46:56;;;;;;;;;;;7.90;99.90;;;;;;5052497;28;20339;-63
2023/04/11 00:49:21;;;;;;;;;;;7.90;99.90;;;;;;5060235;28;19991;-61
2023/04/11 00:51:47;;;;;;;;;;;7.90;99.90;;;;;;5059711;28;19955;-62
2023/04/11 00:54:13;;;;;;;;;;;8.00;99.90;;;;;;5049666;28;19979;-63
2023/04/11 00:56:38;;;;;;;;;;;7.90;99.90;;;;;;5057134;28;19913;-62
2023/04/11 00:59:04;;;;;;;;;;;7.80;99.90;;;;;;5055353;28;19921;-63
2023/04/11 01:01:34;;;;;;;;;;;7.80;99.90;;;;;;5060420;28;19928;-62
2023/04/11 01:04:00;;;;;;;;;;;7.80;99.90;;;;;;5054669;28;20121;-62
2023/04/11 01:06:29;;;;;;;;;;;7.80;99.90;;;;;;5046082;28;19913;-62
2023/04/11 01:08:55;;;;;;;;;;;7.90;99.90;;;;;;5034510;28;20264;-62
2023/04/11 01:11:21;;;;;;;;;;;7.90;99.90;;;;;;5048246;28;20403;-63
2023/04/11 01:13:47;;;;;;;;;;;7.90;99.90;;;;;;5032145;28;20495;-63
2023/04/11 01:16:14;;;;;;;;;;;7.90;99.90;;;;;;5043018;28;19913;-62
2023/04/11 01:18:40;;;;;;;;;;;7.80;99.90;;;;;;5037866;28;19967;-62
2023/04/11 01:21:05;;;;;;;;;;;7.90;99.90;;;;;;5042326;28;19913;-62
2023/04/11 01:23:33;;;;;;;;;;;7.90;99.90;;;;;;5047412;28;20387;-62
2023/04/11 01:25:58;;;;;;;;;;;7.90;99.90;;;;;;5048678;28;19973;-62
2023/04/11 01:28:24;;;;;;;;;;;7.80;99.90;;;;;;5057562;28;20011;-61
2023/04/11 01:30:50;;;;;;;;;;;7.70;99.90;;;;;;5056066;28;19912;-61
2023/04/11 01:33:16;;;;;;;;;;;7.80;99.90;;;;;;5040581;28;20284;-61
2023/04/11 01:35:42;;;;;;;;;;;7.70;99.90;;;;;;5055257;28;19920;-61
2023/04/11 01:38:07;;;;;;;;;;;7.70;99.90;;;;;;5049409;28;19913;-61
2023/04/11 01:40:33;;;;;;;;;;;7.80;99.90;;;;;;5046292;28;19920;-61
2023/04/11 01:43:00;;;;;;;;;;;7.70;99.90;;;;;;5060843;28;20368;-60
2023/04/11 01:45:26;;;;;;;;;;;7.70;99.90;;;;;;5053439;28;20419;-61
2023/04/11 01:47:55;;;;;;;;;;;7.60;99.90;;;;;;5062464;28;19916;-62
2023/04/11 01:50:21;;;;;;;;;;;7.60;99.90;;;;;;5060380;28;20448;-60
2023/04/11 01:52:50;;;;;;;;;;;7.50;99.90;;;;;;5052853;28;20007;-61
2023/04/11 01:55:16;;;;;;;;;;;7.50;99.90;;;;;;5047834;28;20349;-62
2023/04/11 01:57:41;;;;;;;;;;;7.40;99.90;;;;;;5049526;28;19982;-61
2023/04/11 02:00:10;;;;;;;;;;;7.40;99.90;;;;;;5043188;28;20369;-62
2023/04/11 02:02:36;;;;;;;;;;;7.40;99.90;;;;;;5043838;28;20011;-62
2023/04/11 02:05:02;;;;;;;;;;;7.30;99.90;;;;;;5057150;28;19920;-62
2023/04/11 02:07:28;;;;;;;;;;;7.20;99.90;;;;;;5062641;28;20322;-61
2023/04/11 02:09:53;;;;;;;;;;;7.30;99.90;;;;;;5058183;28;20378;-63
2023/04/11 02:12:19;;;;;;;;;;;7.30;99.90;;;;;;5054376;28;20007;-63
2023/04/11 02:14:45;;;;;;;;;;;7.30;99.90;;;;;;5056628;28;19912;-62
2023/04/11 02:17:11;;;;;;;;;;;7.30;99.90;;;;;;5054477;28;20225;-62
2023/04/11 02:19:37;;;;;;;;;;;7.20;99.90;;;;;;5060519;28;19951;-62
2023/04/11 02:22:03;;;;;;;;;;;7.10;99.90;;;;;;5052031;28;19919;-60
2023/04/11 02:24:28;;;;;;;;;;;7.20;99.90;;;;;;5063418;28;19912;-62
2023/04/11 02:26:54;;;;;;;;;;;7.20;99.90;;;;;;5051558;28;19912;-61
2023/04/11 02:29:20;;;;;;;;;;;7.20;99.90;;;;;;5064766;28;19912;-62
2023/04/11 02:31:48;;;;;;;;;;;7.10;99.90;;;;;;5056000;28;20388;-62
2023/04/11 02:34:14;;;;;;;;;;;7.00;99.90;;;;;;5057970;28;19913;-61
2023/04/11 02:36:40;;;;;;;;;;;7.00;99.90;;;;;;5056875;28;19913;-63
2023/04/11 02:39:06;;;;;;;;;;;7.10;99.90;;;;;;5068446;28;20295;-62
2023/04/11 02:41:32;;;;;;;;;;;7.10;99.90;;;;;;5055946;28;19912;-62
2023/04/11 02:43:57;;;;;;;;;;;7.10;99.90;;;;;;5058076;28;19955;-62
2023/04/11 02:46:23;;;;;;;;;;;7.00;99.90;;;;;;5052963;28;19916;-62
2023/04/11 02:48:49;;;;;;;;;;;7.00;99.90;;;;;;5040284;28;19912;-62
2023/04/11 02:51:14;;;;;;;;;;;7.00;99.90;;;;;;5053936;28;19912;-62
2023/04/11 02:53:40;;;;;;;;;;;6.90;99.90;;;;;;5058888;28;19927;-61
2023/04/11 02:56:09;;;;;;;;;;;7.00;99.90;;;;;;5056655;28;20336;-62
2023/04/11 02:58:37;;;;;;;;;;;7.00;99.90;;;;;;5060626;28;20015;-62
2023/04/11 03:01:04;;;;;;;;;;;7.10;99.90;;;;;;5050935;28;19912;-62
2023/04/11 03:03:30;;;;;;;;;;;7.10;99.90;;;;;;5044313;28;19912;-62
2023/04/11 03:05:56;;;;;;;;;;;7.10;99.90;;;;;;5047422;28;19913;-62
2023/04/11 03:08:21;;;;;;;;;;;7.20;99.90;;;;;;5052449;28;19919;-62
2023/04/11 03:10:47;;;;;;;;;;;7.20;99.90;;;;;;5060318;28;19916;-62
2023/04/11 03:13:12;;;;;;;;;;;7.20;99.90;;;;;;5056836;28;19912;-62
2023/04/11 03:15:38;;;;;;;;;;;7.20;99.90;;;;;;5055599;28;19913;-62
2023/04/11 03:18:03;;;;;;;;;;;7.20;99.90;;;;;;5058664;28;19913;-62
2023/04/11 03:20:29;;;;;;;;;;;7.20;99.90;;;;;;5063585;28;19912;-62
2023/04/11 03:22:56;;;;;;;;;;;7.30;99.90;;;;;;5046833;28;21442;-62
2023/04/11 03:25:22;;;;;;;;;;;7.20;99.90;;;;;;5058698;28;19919;-62
2023/04/11 03:27:48;;;;;;;;;;;7.20;99.90;;;;;;5056033;28;19916;-62
2023/04/11 03:30:13;;;;;;;;;;;7.20;99.90;;;;;;5049060;28;19999;-62
2023/04/11 03:32:39;;;;;;;;;;;7.20;99.90;;;;;;5050637;28;20287;-62
2023/04/11 03:35:05;;;;;;;;;;;7.20;99.90;;;;;;5048722;28;20000;-62
2023/04/11 03:37:30;;;;;;;;;;;7.20;99.90;;;;;;5049677;28;20015;-62
2023/04/11 03:39:56;;;;;;;;;;;7.20;99.90;;;;;;5056871;28;19928;-62
2023/04/11 03:42:22;;;;;;;;;;;7.10;99.90;;;;;;5049000;28;19913;-62
2023/04/11 03:44:47;;;;;;;;;;;7.20;99.90;;;;;;5049371;22;19925;-64
2023/04/11 03:47:13;;;;;;;;;;;7.20;99.90;;;;;;5025861;28;19966;-65
2023/04/11 03:49:38;;;;;;;;;;;7.20;99.90;;;;;;5041364;28;21358;-65
2023/04/11 03:52:06;;;;;;;;;;;7.10;99.90;;;;;;5028173;28;19985;-65
2023/04/11 03:54:31;;;;;;;;;;;6.90;99.90;;;;;;5027245;28;19957;-65
2023/04/11 03:56:57;;;;;;;;;;;7.00;99.90;;;;;;5027458;28;20403;-65
2023/04/11 03:59:22;;;;;;;;;;;6.90;99.90;;;;;;5045098;28;19928;-65
2023/04/11 04:01:48;;;;;;;;;;;7.00;99.90;;;;;;5035855;28;19914;-65
2023/04/11 04:04:14;;;;;;;;;;;7.00;99.90;;;;;;5037648;28;20285;-65
2023/04/11 04:06:39;;;;;;;;;;;7.00;99.90;;;;;;5031368;28;19960;-66
2023/04/11 04:09:05;;;;;;;;;;;7.00;99.90;;;;;;5041686;28;19920;-66
2023/04/11 04:11:31;;;;;;;;;;;6.90;99.90;;;;;;5034281;28;19913;-66
2023/04/11 04:13:57;;;;;;;;;;;6.80;99.90;;;;;;5028179;28;19913;-64
2023/04/11 04:16:23;;;;;;;;;;;6.80;99.90;;;;;;5040297;28;19913;-65
2023/04/11 04:18:48;;;;;;;;;;;6.90;99.90;;;;;;5034058;28;19925;-64
2023/04/11 04:21:14;;;;;;;;;;;6.80;99.90;;;;;;5036947;28;19913;-65
2023/04/11 04:23:46;;;;;;;;;;;6.70;99.90;;;;;;5032505;28;19913;-64
2023/04/11 04:26:23;;;;;;;;;;;6.70;99.90;;;;;;5032579;28;19920;-63
2023/04/11 04:28:49;;;;;;;;;;;6.60;99.90;;;;;;5040188;28;19919;-64
2023/04/11 04:31:21;;;;;;;;;;;6.60;99.90;;;;;;5037760;28;19916;-64
2023/04/11 04:33:48;;;;;;;;;;;6.50;99.90;;;;;;5027037;28;19959;-67
2023/04/11 04:36:16;;;;;;;;;;;6.50;99.90;;;;;;5042997;28;19919;-67
2023/04/11 04:38:42;;;;;;;;;;;6.50;99.90;;;;;;5036923;28;19918;-65
2023/04/11 04:41:13;;;;;;;;;;;6.60;99.90;;;;;;5035776;28;19912;-62
2023/04/11 04:43:40;;;;;;;;;;;6.50;99.90;;;;;;5035161;28;19925;-66
2023/04/11 04:46:06;;;;;;;;;;;6.50;99.90;;;;;;5033352;28;19913;-65
2023/04/11 04:48:32;;;;;;;;;;;6.50;99.90;;;;;;5032183;28;19924;-65
2023/04/11 04:50:57;;;;;;;;;;;6.50;99.90;;;;;;5029277;28;19913;-65
2023/04/11 04:53:23;;;;;;;;;;;6.50;99.90;;;;;;5036926;28;20141;-65
2023/04/11 04:55:48;;;;;;;;;;;6.50;99.90;;;;;;5031444;28;19924;-65
2023/04/11 04:58:14;;;;;;;;;;;6.50;99.90;;;;;;5023549;28;19924;-64
2023/04/11 05:00:40;;;;;;;;;;;6.40;99.90;;;;;;5022715;28;20000;-66
2023/04/11 05:03:07;;;;;;;;;;;6.40;99.90;;;;;;5029658;28;19913;-65
2023/04/11 05:05:32;;;;;;;;;;;6.40;99.90;;;;;;5038875;28;20415;-66
2023/04/11 05:07:58;;;;;;;;;;;6.40;99.90;;;;;;5033363;28;19913;-65
2023/04/11 05:10:24;;;;;;;;;;;6.40;99.90;;;;;;5043247;28;20438;-65
2023/04/11 05:12:52;;;;;;;;;;;6.40;99.90;;;;;;5036957;28;19917;-64
2023/04/11 05:15:17;;;;;;;;;;;6.50;99.90;;;;;;5034822;28;20329;-65
2023/04/11 05:17:43;;;;;;;;;;;6.50;99.90;;;;;;5031630;28;20399;-65
2023/04/11 05:20:09;;;;;;;;;;;6.50;99.90;;;;;;5032677;28;19956;-65
2023/04/11 05:22:36;;;;;;;;;;;6.40;99.90;;;;;;5030064;28;19913;-66
2023/04/11 05:25:02;;;;;;;;;;;6.60;99.90;;;;;;5023273;28;20396;-65
2023/04/11 05:27:28;;;;;;;;;;;6.60;99.90;;;;;;5033905;28;19913;-65
2023/04/11 05:29:53;;;;;;;;;;;6.70;99.90;;;;;;5031012;28;19966;-65
2023/04/11 05:32:19;;;;;;;;;;;6.60;99.90;;;;;;5026896;28;19921;-65
2023/04/11 05:34:52;;;;;;;;;;;6.60;99.90;;;;;;5033357;28;19920;-65
2023/04/11 05:37:18;;;;;;;;;;;6.80;99.90;;;;;;5036239;28;19913;-62
2023/04/11 05:39:44;;;;;;;;;;;6.70;99.90;;;;;;5019720;28;20262;-65
2023/04/11 05:42:10;;;;;;;;;;;6.80;99.90;;;;;;5012154;28;19974;-64
2023/04/11 05:44:35;;;;;;;;;;;6.80;99.90;;;;;;5025446;28;20289;-64
2023/04/11 05:47:01;;;;;;;;;;;6.90;99.90;;;;;;5037482;28;20002;-64
2023/04/11 05:49:26;;;;;;;;;;;6.90;99.90;;;;;;5037092;28;19919;-66
2023/04/11 05:51:52;;;;;;;;;;;7.00;99.90;;;;;;5033503;28;19913;-66
2023/04/11 05:54:30;;;;;;;;;;;7.00;99.90;;;;;;5040375;28;19992;-63
2023/04/11 05:56:56;;;;;;;;;;;7.00;99.90;;;;;;5027891;28;19913;-63
2023/04/11 05:59:22;;;;;;;;;;;7.00;99.90;;;;;;5027300;28;19928;-64
2023/04/11 06:01:49;;;;;;;;;;;7.00;99.90;;;;;;5039435;28;19968;-65
2023/04/11 06:04:15;;;;;;;;;;;7.00;99.90;;;;;;5029162;28;19913;-65
2023/04/11 06:06:42;;;;;;;;;;;7.10;99.90;;;;;;5029698;28;19966;-66
2023/04/11 06:09:08;;;;;;;;;;;7.10;99.90;;;;;;5034010;28;20293;-66
2023/04/11 06:11:34;;;;;;;;;;;7.20;99.90;;;;;;5029519;28;19913;-66
2023/04/11 06:14:00;;;;;;;;;;;7.20;99.90;;;;;;5032224;28;19923;-65
2023/04/11 06:16:25;;;;;;;;;;;7.30;99.90;;;;;;5023413;28;19928;-65
2023/04/11 06:18:51;;;;;;;;;;;7.40;99.90;;;;;;5022966;28;19921;-65
2023/04/11 06:21:17;;;;;;;;;;;7.30;99.90;;;;;;5027202;28;19913;-66
2023/04/11 06:23:43;;;;;;;;;;;7.40;99.90;;;;;;5028219;28;20008;-65
2023/04/11 06:26:08;;;;;;;;;;;7.40;99.90;;;;;;5025428;28;19913;-65
2023/04/11 06:28:34;;;;;;;;;;;7.50;99.90;;;;;;5024167;28;19924;-66
2023/04/11 06:30:59;;;;;;;;;;;7.60;99.90;;;;;;5027945;28;19917;-66
2023/04/11 06:33:25;;;;;;;;;;;7.70;99.90;;;;;;5027945;28;19917;-65
2023/04/11 06:35:50;;;;;;;;;;;7.70;99.90;;;;;;5026520;28;19913;-66
2023/04/11 06:38:17;;;;;;;;;;;7.80;99.90;;;;;;5027715;28;19913;-65
2023/04/11 06:40:43;;;;;;;;;;;7.70;99.90;;;;;;5024896;28;19921;-65
2023/04/11 06:43:09;;;;;;;;;;;7.70;99.90;;;;;;5029908;28;19924;-65
2023/04/11 06:45:34;;;;;;;;;;;7.80;99.90;;;;;;5022582;28;20349;-65
2023/04/11 06:48:00;;;;;;;;;;;7.90;99.90;;;;;;5027001;28;19975;-66
2023/04/11 06:50:25;;;;;;;;;;;8.00;99.90;;;;;;5028978;28;19913;-66
2023/04/11 06:52:51;;;;;;;;;;;8.00;99.90;;;;;;5027087;28;19909;-67
2023/04/11 06:55:17;;;;;;;;;;;8.10;99.90;;;;;;5029468;28;20415;-65
2023/04/11 06:57:43;;;;;;;;;;;8.20;99.90;;;;;;5029131;28;19921;-66
2023/04/11 07:00:11;;;;;;;;;;;8.10;99.90;;;;;;5026831;28;20047;-66
2023/04/11 07:02:37;;;;;;;;;;;8.20;99.90;;;;;;5024639;28;20645;-66
2023/04/11 07:05:03;;;;;;;;;;;8.30;99.90;;;;;;5027321;28;19967;-66
2023/04/11 07:07:30;;;;;;;;;;;8.30;99.90;;;;;;5030902;28;19913;-65
2023/04/11 07:09:56;;;;;;;;;;;8.30;99.90;;;;;;5029305;28;20392;-66
2023/04/11 07:12:21;;;;;;;;;;;8.40;99.90;;;;;;5024952;28;19913;-65
2023/04/11 07:14:47;;;;;;;;;;;8.50;99.90;;;;;;5026350;28;20434;-65
2023/04/11 07:17:12;;;;;;;;;;;8.60;99.90;;;;;;5027077;28;19925;-64
2023/04/11 07:19:38;;;;;;;;;;;8.60;99.90;;;;;;5024842;28;19929;-66
2023/04/11 07:22:04;;;;;;;;;;;8.70;99.90;;;;;;5024944;28;19914;-65
2023/04/11 07:24:29;;;;;;;;;;;8.70;99.90;;;;;;5026760;28;19932;-65
2023/04/11 07:26:57;;;;;;;;;;;8.80;99.90;;;;;;5024284;28;19921;-64
2023/04/11 07:29:23;;;;;;;;;;;8.90;99.90;;;;;;5025565;28;19924;-65
2023/04/11 07:31:50;;;;;;;;;;;9.00;99.90;;;;;;5028257;28;19913;-65
2023/04/11 07:34:15;;;;;;;;;;;9.00;99.90;;;;;;5030196;28;19913;-65
2023/04/11 07:36:41;;;;;;;;;;;9.10;99.90;;;;;;5024112;28;19940;-65
2023/04/11 07:39:08;;;;;;;;;;;9.20;99.90;;;;;;5029619;28;19962;-65
2023/04/11 07:41:36;;;;;;;;;;;9.30;99.90;;;;;;5030994;28;19913;-64
2023/04/11 07:44:06;;;;;;;;;;;9.40;99.90;;;;;;5029087;28;19928;-65
2023/04/11 07:46:32;;;;;;;;;;;9.40;99.90;;;;;;5029543;28;19917;-65
2023/04/11 07:48:58;;;;;;;;;;;9.50;99.90;;;;;;5032838;28;19915;-65
2023/04/11 07:51:23;;;;;;;;;;;9.60;99.90;;;;;;5032995;28;19962;-66
2023/04/11 07:53:49;;;;;;;;;;;9.70;99.90;;;;;;5029799;28;19913;-66
2023/04/11 07:56:14;;;;;;;;;;;9.80;99.90;;;;;;5037336;28;20276;-65
2023/04/11 07:58:40;;;;;;;;;;;9.80;99.90;;;;;;5022386;28;19917;-65
2023/04/11 08:01:17;;;;;;;;;;;10.00;99.90;;;;;;5029146;28;20023;-65
2023/04/11 08:03:43;;;;;;;;;;;10.00;99.90;;;;;;5029378;28;19967;-66
2023/04/11 08:06:10;;;;;;;;;;;10.20;99.90;;;;;;5036965;28;19913;-65
2023/04/11 08:08:35;;;;;;;;;;;10.10;99.90;;;;;;5026512;28;19944;-65
2023/04/11 08:11:01;;;;;;;;;;;10.20;99.90;;;;;;5028969;28;19952;-65
2023/04/11 08:13:26;;;;;;;;;;;10.20;99.90;;;;;;5022639;28;19913;-66
2023/04/11 08:15:52;;;;;;;;;;;10.30;99.90;;;;;;5028161;28;19957;-66
2023/04/11 08:18:20;;;;;;;;;;;10.30;99.90;;;;;;5027033;28;19913;-67
2023/04/11 08:20:47;;;;;;;;;;;10.20;99.90;;;;;;5032056;28;19918;-66
2023/04/11 08:23:12;;;;;;;;;;;10.10;99.90;;;;;;5029346;28;20272;-66
2023/04/11 08:25:38;;;;;;;;;;;10.20;99.90;;;;;;5028192;28;19917;-66
2023/04/11 08:28:04;;;;;;;;;;;10.20;99.90;;;;;;5028523;28;19983;-66
2023/04/11 08:30:30;;;;;;;;;;;10.30;99.90;;;;;;5024638;28;20282;-65
2023/04/11 08:32:56;;;;;;;;;;;10.50;99.90;;;;;;5019758;28;19913;-66
2023/04/11 08:35:21;;;;;;;;;;;10.50;99.90;;;;;;5027112;28;19955;-65
2023/04/11 08:37:48;;;;;;;;;;;10.70;99.90;;;;;;5030382;28;19913;-66
2023/04/11 08:40:14;;;;;;;;;;;10.90;99.90;;;;;;5029892;28;19921;-66
2023/04/11 08:42:40;;;;;;;;;;;11.00;99.90;;;;;;5021675;28;19999;-65
2023/04/11 08:45:07;;;;;;;;;;;11.00;99.90;;;;;;5019681;28;20056;-66
2023/04/11 08:47:33;;;;;;;;;;;11.30;99.90;;;;;;5035174;28;19920;-65
2023/04/11 08:49:59;;;;;;;;;;;11.30;99.90;;;;;;5039661;28;19921;-66
2023/04/11 08:52:25;;;;;;;;;;;11.40;99.90;;;;;;5038406;28;19920;-65
2023/04/11 08:54:53;;;;;;;;;;;11.60;99.90;;;;;;5033854;28;20010;-66
2023/04/11 08:57:26;;;;;;;;;;;11.90;99.90;;;;;;5036365;28;19913;-64
2023/04/11 08:59:53;;;;;;;;;;;11.60;99.90;;;;;;5029635;28;20435;-66
2023/04/11 09:02:19;;;;;;;;;;;11.70;99.90;;;;;;5032309;28;20308;-66
2023/04/11 09:04:46;;;;;;;;;;;11.90;99.90;;;;;;5032312;28;19920;-65
2023/04/11 09:07:12;;;;;;;;;;;11.60;99.90;;;;;;5029087;28;19913;-66
2023/04/11 09:09:38;;;;;;;;;;;11.60;99.90;;;;;;5033253;28;19913;-66
2023/04/11 09:12:04;;;;;;;;;;;11.80;99.90;;;;;;5030180;28;19935;-66
2023/04/11 09:14:30;;;;;;;;;;;11.80;99.90;;;;;;5028755;28;20428;-66
2023/04/11 09:16:57;;;;;;;;;;;11.80;99.90;;;;;;5030922;28;19913;-68
2023/04/11 09:19:26;;;;;;;;;;;11.90;99.90;;;;;;5029744;28;19951;-66
2023/04/11 09:21:52;;;;;;;;;;;12.20;99.90;;;;;;5030958;28;19950;-66
2023/04/11 09:24:18;;;;;;;;;;;12.30;99.90;;;;;;5037169;28;19913;-65
2023/04/11 09:26:44;;;;;;;;;;;12.40;99.90;;;;;;5029377;28;19920;-66
2023/04/11 09:29:09;;;;;;;;;;;12.60;99.90;;;;;;5035041;28;19953;-65
2023/04/11 09:31:40;;;;;;;;;;;12.70;99.90;;;;;;5029034;28;19913;-66
2023/04/11 09:34:05;;;;;;;;;;;12.70;99.90;;;;;;5030825;28;19914;-67
2023/04/11 09:36:31;;;;;;;;;;;12.50;99.90;;;;;;5033738;28;19913;-67
2023/04/11 09:38:57;;;;;;;;;;;12.50;99.90;;;;;;5031250;28;19928;-65
2023/04/11 09:41:32;;;;;;;;;;;12.40;99.90;;;;;;5033021;28;19921;-67
2023/04/11 09:43:58;;;;;;;;;;;12.30;99.90;;;;;;5027594;28;19975;-66
2023/04/11 09:46:24;;;;;;;;;;;12.50;99.90;;;;;;5029105;28;19914;-66
2023/04/11 09:48:50;;;;;;;;;;;12.60;99.90;;;;;;5033525;28;20439;-66
2023/04/11 09:51:16;;;;;;;;;;;12.50;99.90;;;;;;5033590;28;19917;-67
2023/04/11 09:53:42;;;;;;;;;;;12.40;99.90;;;;;;5033073;28;20004;-65
2023/04/11 09:56:08;;;;;;;;;;;12.80;99.90;;;;;;5029168;28;20056;-64
2023/04/11 09:58:35;;;;;;;;;;;12.60;99.90;;;;;;5035177;28;21867;-67
2023/04/11 10:01:01;;;;;;;;;;;12.70;99.90;;;;;;5029169;28;20384;-65
2023/04/11 10:03:27;;;;;;;;;;;12.70;99.90;;;;;;5021243;28;19998;-66
2023/04/11 10:05:53;;;;;;;;;;;12.50;99.90;;;;;;5036683;28;19947;-66
2023/04/11 10:08:31;;;;;;;;;;;12.70;99.90;;;;;;5036969;28;19913;-66
2023/04/11 10:10:57;;;;;;;;;;;12.80;99.90;;;;;;5027645;28;20284;-66
2023/04/11 10:13:42;;;;;;;;;;;12.80;99.90;;;;;;5024030;28;19921;-65
2023/04/11 10:16:15;;;;;;;;;;;13.00;99.90;;;;;;5030672;28;19992;-65
2023/04/11 10:18:49;;;;;;;;;;;13.20;99.90;;;;;;5019507;28;19964;-64
2023/04/11 10:21:40;;;;;;;;;;;13.20;99.90;;;;;;5022777;28;19917;-64
2023/04/11 10:24:09;;;;;;;;;;;13.30;99.90;;;;;;5018547;28;19920;-65
2023/04/11 10:26:48;;;;;;;;;;;13.50;99.90;;;;;;5022025;28;19913;-65
2023/04/11 10:29:33;;;;;;;;;;;13.30;99.90;;;;;;5039241;28;19955;-65
2023/04/11 10:32:14;;;;;;;;;;;13.40;99.90;;;;;;5025039;28;20336;-66
2023/04/11 10:34:48;;;;;;;;;;;13.30;99.90;;;;;;5033794;28;19932;-65
2023/04/11 10:37:14;;;;;;;;;;;13.50;99.90;;;;;;5036293;28;19920;-65
2023/04/11 10:39:52;;;;;;;;;;;13.80;99.90;;;;;;5024270;28;19921;-66
2023/04/11 10:42:27;;;;;;;;;;;13.90;99.90;;;;;;5025902;28;19928;-62
2023/04/11 10:45:11;;;;;;;;;;;13.90;99.90;;;;;;5025219;28;19955;-66
2023/04/11 10:47:36;;;;;;;;;;;13.50;99.90;;;;;;5024506;28;19979;-66
2023/04/11 10:50:02;;;;;;;;;;;13.80;99.90;;;;;;5031784;28;19917;-67
2023/04/11 10:52:36;;;;;;;;;;;13.80;99.90;;;;;;5025564;28;19974;-66
2023/04/11 10:55:13;;;;;;;;;;;13.80;99.90;;;;;;5028295;28;20375;-65
2023/04/11 10:57:59;;;;;;;;;;;13.90;99.90;;;;;;5026640;28;20298;-65
2023/04/11 11:00:26;;;;;;;;;;;13.80;99.90;;;;;;5024868;28;20318;-65
2023/04/11 11:02:52;;;;;;;;;;;13.90;99.90;;;;;;5027246;28;19920;-66
2023/04/11 11:05:19;;;;;;;;;;;13.90;99.90;;;;;;5029778;28;19913;-65
2023/04/11 11:07:45;;;;;;;;;;;13.80;99.90;;;;;;5026990;28;19967;-66
2023/04/11 11:10:11;;;;;;;;;;;14.20;99.90;;;;;;5024904;28;19914;-66
2023/04/11 11:12:37;;;;;;;;;;;14.40;99.90;;;;;;5023014;28;19919;-65
2023/04/11 11:15:12;;;;;;;;;;;14.50;99.90;;;;;;5024722;28;20003;-66
2023/04/11 11:17:37;;;;;;;;;;;14.70;99.90;;;;;;5024815;28;19913;-66
2023/04/11 11:20:08;;;;;;;;;;;14.60;99.90;;;;;;5032236;28;20027;-66
2023/04/11 11:22:34;;;;;;;;;;;14.60;99.90;;;;;;5022585;28;19914;-66
2023/04/11 11:25:07;;;;;;;;;;;14.50;99.90;;;;;;5029432;28;20056;-65
2023/04/11 11:27:33;;;;;;;;;;;14.60;99.90;;;;;;5028122;28;19913;-66
2023/04/11 11:30:09;;;;;;;;;;;14.60;99.90;;;;;;5032860;28;19959;-67
2023/04/11 11:32:34;;;;;;;;;;;14.40;99.90;;;;;;5024588;28;19921;-66
2023/04/11 11:35:11;;;;;;;;;;;14.20;99.90;;;;;;5030300;28;20012;-66
2023/04/11 11:37:37;;;;;;;;;;;14.00;99.90;;;;;;5035310;28;19920;-66
2023/04/11 11:40:08;;;;;;;;;;;14.20;99.90;;;;;;5032698;28;19921;-65
2023/04/11 11:42:35;;;;;;;;;;;14.20;99.90;;;;;;5022608;28;19913;-66
2023/04/11 11:45:33;;;;;;;;;;;14.50;99.90;;;;;;5023920;28;19929;-67
2023/04/11 11:47:58;;;;;;;;;;;14.60;99.90;;;;;;4999047;28;19920;-65
2023/04/11 11:50:28;;;;;;;;;;;14.70;99.90;;;;;;5028045;28;19917;-65
2023/04/11 11:52:53;;;;;;;;;;;14.70;99.90;;;;;;5020081;28;19914;-65
2023/04/11 11:55:21;;;;;;;;;;;14.50;99.90;;;;;;5023600;28;19913;-62
2023/04/11 11:57:47;;;;;;;;;;;14.30;99.90;;;;;;5030090;28;20010;-65
2023/04/11 12:00:13;;;;;;;;;;;14.10;99.90;;;;;;5029761;28;19928;-65
2023/04/11 12:02:41;;;;;;;;;;;13.90;99.90;;;;;;5020067;28;19971;-65
2023/04/11 12:05:09;;;;;;;;;;;13.90;99.90;;;;;;5029493;28;19920;-65
2023/04/11 12:07:36;;;;;;;;;;;13.80;99.90;;;;;;5032234;28;19913;-65
2023/04/11 12:10:07;;;;;;;;;;;13.70;99.90;;;;;;5018058;28;19920;-65
2023/04/11 12:12:34;;;;;;;;;;;13.50;99.90;;;;;;5035827;28;19920;-65
2023/04/11 12:15:01;;;;;;;;;;;13.40;99.90;;;;;;5025184;28;19913;-65
2023/04/11 12:17:33;;;;;;;;;;;13.40;99.90;;;;;;5035143;28;19921;-66
2023/04/11 12:19:59;;;;;;;;;;;13.40;99.90;;;;;;5040330;28;19920;-65
2023/04/11 12:22:25;;;;;;;;;;;13.30;99.90;;;;;;5028955;28;19998;-65
2023/04/11 12:24:51;;;;;;;;;;;13.20;99.90;;;;;;5033747;28;19967;-65
2023/04/11 12:27:17;;;;;;;;;;;13.00;99.90;;;;;;5037592;28;19913;-66
2023/04/11 12:29:45;;;;;;;;;;;13.30;99.90;;;;;;5028849;28;20284;-66
2023/04/11 12:32:10;;;;;;;;;;;13.40;99.90;;;;;;5024976;28;19914;-66
2023/04/11 12:34:36;;;;;;;;;;;13.40;99.90;;;;;;5032234;28;19914;-65
2023/04/11 12:37:01;;;;;;;;;;;13.10;99.90;;;;;;5037903;28;19917;-65
2023/04/11 12:39:27;;;;;;;;;;;13.10;99.90;;;;;;5035200;28;20356;-65
2023/04/11 12:41:52;;;;;;;;;;;13.10;99.90;;;;;;5028946;28;19914;-66
2023/04/11 12:44:18;;;;;;;;;;;13.20;99.90;;;;;;5039328;28;20081;-64
2023/04/11 12:46:43;;;;;;;;;;;13.20;99.90;;;;;;5030223;28;19913;-65
2023/04/11 12:49:09;;;;;;;;;;;13.40;99.90;;;;;;5039830;28;19975;-65
2023/04/11 12:51:35;;;;;;;;;;;13.60;99.90;;;;;;5039020;28;19956;-66
2023/04/11 12:54:00;;;;;;;;;;;13.60;99.90;;;;;;5035171;28;19925;-66
2023/04/11 12:56:26;;;;;;;;;;;13.40;99.90;;;;;;5035599;28;19987;-66
2023/04/11 12:58:52;;;;;;;;;;;13.50;99.90;;;;;;5032046;28;19925;-66
2023/04/11 13:01:17;;;;;;;;;;;13.30;99.90;;;;;;5034492;28;20357;-66
2023/04/11 13:03:43;;;;;;;;;;;13.40;99.90;;;;;;5035915;28;19913;-67
2023/04/11 13:06:08;;;;;;;;;;;13.40;99.90;;;;;;5025781;28;19925;-66
2023/04/11 13:08:34;;;;;;;;;;;13.20;99.90;;;;;;5025307;28;19913;-65
2023/04/11 13:11:00;;;;;;;;;;;13.20;99.90;;;;;;5029758;28;19913;-66
2023/04/11 13:13:25;;;;;;;;;;;13.00;99.90;;;;;;5027459;28;19917;-65
2023/04/11 13:15:51;;;;;;;;;;;13.00;99.90;;;;;;5029319;28;19913;-65
2023/04/11 13:18:17;;;;;;;;;;;12.80;99.90;;;;;;5024687;28;20357;-65
2023/04/11 13:20:42;;;;;;;;;;;12.70;99.90;;;;;;5030279;28;19921;-66
2023/04/11 13:23:08;;;;;;;;;;;12.60;99.90;;;;;;5029687;28;20257;-66
2023/04/11 13:25:34;;;;;;;;;;;12.30;99.90;;;;;;5017980;28;19913;-66
2023/04/11 13:27:59;;;;;;;;;;;12.50;99.90;;;;;;5028365;28;19913;-66
2023/04/11 13:30:25;;;;;;;;;;;12.30;99.90;;;;;;5035429;28;19917;-66
2023/04/11 13:32:51;;;;;;;;;;;12.00;99.90;;;;;;5034878;28;19917;-65
2023/04/11 13:35:16;;;;;;;;;;;11.80;99.90;;;;;;5028159;28;20025;-66
2023/04/11 13:37:42;;;;;;;;;;;11.60;99.90;;;;;;5012558;28;20281;-65
2023/04/11 13:40:09;;;;;;;;;;;11.70;99.90;;;;;;5021542;28;19921;-65
2023/04/11 13:42:35;;;;;;;;;;;11.70;99.90;;;;;;5022388;28;19960;-65
2023/04/11 13:45:01;;;;;;;;;;;11.50;99.90;;;;;;5027002;28;20000;-64
2023/04/11 13:47:26;;;;;;;;;;;11.10;99.90;;;;;;5027016;28;19923;-66
2023/04/11 13:49:52;;;;;;;;;;;11.00;99.90;;;;;;5029762;28;20280;-66
2023/04/11 13:52:17;;;;;;;;;;;10.40;99.90;;;;;;5026751;28;19943;-66
2023/04/11 13:54:43;;;;;;;;;;;10.30;99.90;;;;;;5027558;28;19967;-66
2023/04/11 13:57:09;;;;;;;;;;;10.30;99.90;;;;;;5031973;28;19995;-66
2023/04/11 13:59:35;;;;;;;;;;;10.40;99.90;;;;;;5032793;28;19982;-66
2023/04/11 14:02:01;;;;;;;;;;;10.50;99.90;;;;;;5031491;28;20004;-65
2023/04/11 14:04:26;;;;;;;;;;;10.40;99.90;;;;;;5026915;28;19921;-65
2023/04/11 14:06:54;;;;;;;;;;;10.70;99.90;;;;;;5032097;28;20054;-66
2023/04/11 14:09:20;;;;;;;;;;;11.00;99.90;;;;;;5027662;28;20008;-65
2023/04/11 14:11:45;;;;;;;;;;;11.20;99.90;;;;;;5038095;28;19913;-66
2023/04/11 14:14:11;;;;;;;;;;;11.30;99.90;;;;;;5032283;28;20656;-65
2023/04/11 14:16:36;;;;;;;;;;;11.50;99.90;;;;;;5026985;28;19914;-66
2023/04/11 14:19:02;;;;;;;;;;;11.60;99.90;;;;;;5030389;28;20059;-66
2023/04/11 14:21:27;;;;;;;;;;;11.50;99.90;;;;;;5029455;28;20369;-66